createdAt,value
2023-03-15T00:00:32.066Z,9.18
2023-03-15T00:02:36.833Z,9.12
2023-03-15T00:04:41.973Z,9.09
2023-03-15T00:06:46.805Z,9.06
2023-03-15T00:08:52.208Z,9.05
2023-03-15T00:10:57.169Z,9.03
2023-03-15T00:13:01.883Z,9.02
2023-03-15T00:15:07.521Z,9.00
2023-03-15T00:17:14.889Z,8.99
2023-03-15T00:19:19.744Z,9.02
2023-03-15T00:21:25.247Z,9.05
2023-03-15T00:23:31.645Z,9.07
2023-03-15T00:25:36.532Z,9.11
2023-03-15T00:27:41.254Z,9.12
2023-03-15T00:29:45.970Z,9.14
2023-03-15T00:31:51.829Z,9.15
2023-03-15T00:33:59.121Z,9.13
2023-03-15T00:36:07.435Z,9.11
2023-03-15T00:38:13.756Z,9.11
2023-03-15T00:40:20.504Z,9.11
2023-03-15T00:42:27.689Z,9.07
2023-03-15T00:44:33.867Z,9.13
2023-03-15T00:46:38.842Z,9.14
2023-03-15T00:48:43.861Z,9.16
2023-03-15T00:50:51.176Z,9.15
2023-03-15T00:52:56.291Z,9.15
2023-03-15T00:55:00.951Z,9.16
2023-03-15T00:57:06.322Z,9.19
2023-03-15T00:59:11.196Z,9.18
2023-03-15T01:01:19.512Z,9.18
2023-03-15T01:03:24.314Z,9.19
2023-03-15T01:05:29.218Z,9.18
2023-03-15T01:07:36.744Z,9.16
2023-03-15T01:09:42.785Z,9.15
2023-03-15T01:11:50.020Z,9.15
2023-03-15T01:13:55.463Z,9.14
2023-03-15T01:16:00.446Z,9.15
2023-03-15T01:18:05.270Z,9.17
2023-03-15T01:20:11.700Z,9.15
2023-03-15T01:22:16.576Z,9.12
2023-03-15T01:24:23.952Z,9.12
2023-03-15T01:26:28.842Z,9.12
2023-03-15T01:28:33.698Z,9.09
2023-03-15T01:30:38.496Z,9.03
2023-03-15T01:32:43.340Z,8.96
2023-03-15T01:34:48.510Z,8.91
2023-03-15T01:36:54.054Z,8.81
2023-03-15T01:39:04.094Z,8.72
2023-03-15T01:41:21.493Z,8.62
2023-03-15T01:43:28.134Z,8.56
2023-03-15T01:45:56.112Z,8.52
2023-03-15T01:48:02.295Z,8.49
2023-03-15T01:50:11.597Z,8.47
2023-03-15T01:52:21.454Z,8.47
2023-03-15T01:54:46.618Z,8.43
2023-03-15T01:56:57.997Z,8.37
2023-03-15T01:59:05.288Z,8.36
2023-03-15T02:01:11.719Z,8.32
2023-03-15T02:03:24.506Z,8.31
2023-03-15T02:05:33.456Z,8.25
2023-03-15T02:07:50.195Z,8.13
2023-03-15T02:10:06.327Z,8.04
2023-03-15T02:12:15.751Z,7.99
2023-03-15T02:14:22.589Z,7.95
2023-03-15T02:16:28.455Z,7.89
2023-03-15T02:18:40.469Z,7.83
2023-03-15T02:20:54.062Z,7.80
2023-03-15T02:23:00.833Z,7.82
2023-03-15T02:25:12.803Z,7.83
2023-03-15T02:27:27.615Z,7.85
2023-03-15T02:29:33.423Z,7.90
2023-03-15T02:31:38.480Z,7.94
2023-03-15T02:33:46.705Z,7.99
2023-03-15T02:35:52.814Z,8.04
2023-03-15T02:37:57.668Z,8.10
2023-03-15T02:40:02.457Z,8.16
2023-03-15T02:42:08.851Z,8.22
2023-03-15T02:44:19.772Z,8.26
2023-03-15T02:46:25.284Z,8.30
2023-03-15T02:48:30.909Z,8.35
2023-03-15T02:50:35.869Z,8.41
2023-03-15T02:52:40.703Z,8.43
2023-03-15T02:54:45.803Z,8.45
2023-03-15T02:56:51.544Z,8.46
2023-03-15T02:58:56.495Z,8.46
2023-03-15T03:01:03.967Z,8.46
2023-03-15T03:03:09.084Z,8.49
2023-03-15T03:05:14.634Z,8.52
2023-03-15T03:07:19.513Z,8.51
2023-03-15T03:09:36.363Z,8.51
2023-03-15T03:11:41.586Z,8.53
2023-03-15T03:13:46.660Z,8.55
2023-03-15T03:15:58.838Z,8.56
2023-03-15T03:18:09.373Z,8.54
2023-03-15T03:20:15.996Z,8.53
2023-03-15T03:22:25.120Z,8.53
2023-03-15T03:24:29.915Z,8.50
2023-03-15T03:26:34.698Z,8.46
2023-03-15T03:28:39.637Z,8.43
2023-03-15T03:30:44.532Z,8.38
2023-03-15T03:32:51.248Z,8.36
2023-03-15T03:34:58.816Z,8.34
2023-03-15T03:37:04.298Z,8.31
2023-03-15T03:39:31.412Z,8.28
2023-03-15T03:41:38.816Z,8.24
2023-03-15T03:43:45.285Z,8.23
2023-03-15T03:45:50.185Z,8.20
2023-03-15T03:47:55.546Z,8.16
2023-03-15T03:50:03.178Z,8.13
2023-03-15T03:52:08.814Z,8.13
2023-03-15T03:54:15.941Z,8.11
2023-03-15T03:56:22.361Z,8.10
2023-03-15T03:58:27.294Z,8.10
2023-03-15T04:00:38.125Z,8.12
2023-03-15T04:02:45.475Z,8.11
2023-03-15T04:04:53.118Z,8.13
2023-03-15T04:07:01.723Z,8.15
2023-03-15T04:09:14.274Z,8.15
2023-03-15T04:11:21.493Z,8.15
2023-03-15T04:13:32.939Z,8.15
2023-03-15T04:15:39.538Z,8.15
2023-03-15T04:17:44.979Z,8.16
2023-03-15T04:19:49.777Z,8.13
2023-03-15T04:22:06.977Z,8.12
2023-03-15T04:24:24.812Z,8.10
2023-03-15T04:26:46.755Z,8.09
2023-03-15T04:29:09.876Z,8.06
2023-03-15T04:31:37.831Z,7.99
2023-03-15T04:34:03.370Z,7.99
2023-03-15T04:36:37.690Z,7.96
2023-03-15T04:38:49.266Z,7.97
2023-03-15T04:41:20.983Z,7.96
2023-03-15T04:43:38.472Z,7.96
2023-03-15T04:45:56.192Z,7.97
2023-03-15T04:48:27.590Z,7.94
2023-03-15T04:50:51.059Z,7.92
2023-03-15T04:53:18.261Z,7.90
2023-03-15T04:55:28.682Z,7.87
2023-03-15T04:57:52.000Z,7.82
2023-03-15T05:00:26.589Z,7.79
2023-03-15T05:02:57.823Z,7.76
2023-03-15T05:05:38.043Z,7.75
2023-03-15T05:07:52.242Z,7.73
2023-03-15T05:10:10.601Z,7.73
2023-03-15T05:12:27.062Z,7.71
2023-03-15T05:14:37.251Z,7.68
2023-03-15T05:17:02.406Z,7.69
2023-03-15T05:19:22.578Z,7.68
2023-03-15T05:21:40.706Z,7.66
2023-03-15T05:24:14.597Z,7.67
2023-03-15T05:26:30.126Z,7.69
2023-03-15T05:29:10.025Z,7.68
2023-03-15T05:31:37.064Z,7.68
2023-03-15T05:34:14.214Z,7.67
2023-03-15T05:36:45.280Z,7.65
2023-03-15T05:39:08.993Z,7.58
2023-03-15T05:41:38.675Z,7.60
2023-03-15T05:44:11.376Z,7.59
2023-03-15T05:46:54.784Z,7.60
2023-03-15T05:49:07.309Z,7.61
2023-03-15T05:51:40.267Z,7.58
2023-03-15T05:54:03.557Z,7.57
2023-03-15T05:56:08.724Z,7.55
2023-03-15T05:58:29.929Z,7.53
2023-03-15T06:01:01.509Z,7.49
2023-03-15T06:03:26.478Z,7.48
2023-03-15T06:05:38.744Z,7.47
2023-03-15T06:07:47.861Z,7.46
2023-03-15T06:09:54.362Z,7.43
2023-03-15T06:11:59.611Z,7.40
2023-03-15T06:14:04.826Z,7.43
2023-03-15T06:16:18.318Z,7.41
2023-03-15T06:18:26.110Z,7.39
2023-03-15T06:20:32.022Z,7.40
2023-03-15T06:22:42.323Z,7.41
2023-03-15T06:24:58.956Z,7.41
2023-03-15T06:27:03.686Z,7.39
2023-03-15T06:29:09.096Z,7.37
2023-03-15T06:31:18.255Z,7.37
2023-03-15T06:33:34.136Z,7.35
2023-03-15T06:35:39.144Z,7.37
2023-03-15T06:37:44.688Z,7.35
2023-03-15T06:39:51.127Z,7.33
2023-03-15T06:41:58.707Z,7.38
2023-03-15T06:44:05.654Z,7.39
2023-03-15T06:46:10.866Z,7.40
2023-03-15T06:48:15.748Z,7.41
2023-03-15T06:50:24.043Z,7.43
2023-03-15T06:52:31.570Z,7.39
2023-03-15T06:54:38.313Z,7.47
2023-03-15T06:56:43.312Z,7.47
2023-03-15T06:58:48.060Z,7.42
2023-03-15T07:00:52.852Z,7.45
2023-03-15T07:02:57.712Z,7.43
2023-03-15T07:05:02.509Z,7.44
2023-03-15T07:07:10.270Z,7.43
2023-03-15T07:09:14.986Z,7.43
2023-03-15T07:11:19.719Z,7.43
2023-03-15T07:13:24.472Z,7.44
2023-03-15T07:15:29.271Z,7.46
2023-03-15T07:17:34.659Z,7.50
2023-03-15T07:19:50.149Z,7.53
2023-03-15T07:21:58.983Z,7.56
2023-03-15T07:24:06.606Z,7.59
2023-03-15T07:26:11.370Z,7.62
2023-03-15T07:28:16.176Z,7.65
2023-03-15T07:30:22.411Z,7.73
2023-03-15T07:32:27.439Z,7.86
2023-03-15T07:34:32.485Z,7.97
2023-03-15T07:36:37.211Z,8.06
2023-03-15T07:38:43.213Z,8.11
2023-03-15T07:40:50.765Z,8.15
2023-03-15T07:42:55.489Z,8.24
2023-03-15T07:45:00.238Z,8.27
2023-03-15T07:47:04.952Z,8.30
2023-03-15T07:49:09.742Z,8.36
2023-03-15T07:51:14.438Z,8.46
2023-03-15T07:53:19.372Z,8.57
2023-03-15T07:55:24.097Z,8.68
2023-03-15T07:57:32.439Z,8.76
2023-03-15T07:59:37.220Z,8.85
2023-03-15T08:01:41.951Z,8.90
2023-03-15T08:03:46.773Z,8.86
2023-03-15T08:05:51.628Z,8.86
2023-03-15T08:07:56.751Z,8.84
2023-03-15T08:10:01.838Z,8.84
2023-03-15T08:12:06.910Z,8.85
2023-03-15T08:14:14.220Z,8.80
2023-03-15T08:16:18.984Z,8.74
2023-03-15T08:18:23.849Z,8.68
2023-03-15T08:20:29.945Z,8.66
2023-03-15T08:22:36.914Z,8.63
2023-03-15T08:24:42.929Z,8.58
2023-03-15T08:26:47.697Z,8.60
2023-03-15T08:28:52.375Z,8.60
2023-03-15T08:30:59.739Z,8.61
2023-03-15T08:33:04.676Z,8.64
2023-03-15T08:35:15.159Z,8.70
2023-03-15T08:37:21.128Z,8.81
2023-03-15T08:39:26.370Z,8.85
2023-03-15T08:41:31.092Z,8.85
2023-03-15T08:43:35.892Z,8.89
2023-03-15T08:45:59.705Z,8.96
2023-03-15T08:48:08.812Z,8.96
2023-03-15T08:50:16.587Z,9.03
2023-03-15T08:52:21.567Z,9.17
2023-03-15T08:54:27.593Z,9.30
2023-03-15T08:56:32.510Z,9.33
2023-03-15T08:58:37.545Z,9.41
2023-03-15T09:00:43.146Z,9.39
2023-03-15T09:02:48.770Z,9.40
2023-03-15T09:04:56.399Z,9.46
2023-03-15T09:07:01.786Z,9.56
2023-03-15T09:09:06.837Z,9.66
2023-03-15T09:11:11.656Z,9.73
2023-03-15T09:13:16.400Z,9.81
2023-03-15T09:15:21.817Z,9.88
2023-03-15T09:17:26.719Z,9.96
2023-03-15T09:19:32.530Z,9.99
2023-03-15T09:21:41.199Z,10.02
2023-03-15T09:23:46.241Z,10.12
2023-03-15T09:25:52.081Z,10.33
2023-03-15T09:27:57.336Z,10.56
2023-03-15T09:30:02.280Z,10.88
2023-03-15T09:32:07.505Z,11.27
2023-03-15T09:34:13.296Z,11.60
2023-03-15T09:36:18.010Z,12.01
2023-03-15T09:38:25.683Z,12.43
2023-03-15T09:40:33.596Z,12.77
2023-03-15T09:43:02.557Z,12.96
2023-03-15T09:45:16.493Z,13.06
2023-03-15T09:47:35.192Z,12.98
2023-03-15T09:49:49.131Z,12.80
2023-03-15T09:51:59.902Z,12.66
2023-03-15T09:54:12.501Z,12.60
2023-03-15T09:56:25.878Z,12.51
2023-03-15T09:58:33.036Z,12.39
2023-03-15T10:00:42.993Z,12.39
2023-03-15T10:02:59.236Z,12.32
2023-03-15T10:05:11.287Z,12.21
2023-03-15T10:07:18.593Z,12.07
2023-03-15T10:09:29.798Z,11.94
2023-03-15T10:11:40.688Z,11.78
2023-03-15T10:14:10.154Z,11.69
2023-03-15T10:16:28.571Z,11.64
2023-03-15T10:18:45.759Z,11.57
2023-03-15T10:20:58.010Z,11.53
2023-03-15T10:23:08.392Z,11.52
2023-03-15T10:25:20.410Z,11.51
2023-03-15T10:27:31.394Z,11.50
2023-03-15T10:29:37.147Z,11.46
2023-03-15T10:31:45.094Z,11.46
2023-03-15T10:33:52.541Z,11.56
2023-03-15T10:36:07.841Z,11.56
2023-03-15T10:38:18.310Z,11.45
2023-03-15T10:40:44.412Z,11.41
2023-03-15T10:42:50.267Z,11.37
2023-03-15T10:44:55.307Z,11.37
2023-03-15T10:47:21.464Z,11.36
2023-03-15T10:49:36.160Z,11.37
2023-03-15T10:51:44.185Z,11.38
2023-03-15T10:53:56.738Z,11.41
2023-03-15T10:56:08.026Z,11.39
2023-03-15T10:58:25.719Z,11.37
2023-03-15T11:00:34.047Z,11.36
2023-03-15T11:02:39.306Z,11.40
2023-03-15T11:04:45.209Z,11.41
2023-03-15T11:06:52.066Z,11.48
2023-03-15T11:08:57.278Z,11.58
2023-03-15T11:11:04.763Z,11.67
2023-03-15T11:13:14.617Z,11.63
2023-03-15T11:15:21.681Z,11.55
2023-03-15T11:17:28.872Z,11.46
2023-03-15T11:19:37.154Z,11.41
2023-03-15T11:21:43.956Z,11.38
2023-03-15T11:23:51.405Z,11.33
2023-03-15T11:25:57.064Z,11.28
2023-03-15T11:28:04.614Z,11.26
2023-03-15T11:30:16.064Z,11.33
2023-03-15T11:32:23.967Z,11.49
2023-03-15T11:34:39.890Z,11.64
2023-03-15T11:36:53.145Z,11.75
2023-03-15T11:39:06.398Z,11.91
2023-03-15T11:41:19.282Z,12.09
2023-03-15T11:43:32.057Z,12.26
2023-03-15T11:45:39.801Z,12.52
2023-03-15T11:48:10.997Z,12.77
2023-03-15T11:50:18.148Z,12.97
2023-03-15T11:52:25.223Z,13.13
2023-03-15T11:54:33.262Z,13.37
2023-03-15T11:56:54.010Z,13.53
2023-03-15T11:59:13.325Z,13.70
2023-03-15T12:01:29.291Z,13.75
2023-03-15T12:03:43.347Z,13.73
2023-03-15T12:05:52.492Z,13.74
2023-03-15T12:08:03.112Z,13.74
2023-03-15T12:10:36.026Z,13.74
2023-03-15T12:12:42.006Z,13.76
2023-03-15T12:14:50.487Z,13.71
2023-03-15T12:17:20.199Z,13.65
2023-03-15T12:19:37.406Z,13.65
2023-03-15T12:21:47.048Z,13.73
2023-03-15T12:24:05.350Z,13.77
2023-03-15T12:26:16.652Z,13.80
2023-03-15T12:28:25.956Z,13.76
2023-03-15T12:30:42.890Z,13.66
2023-03-15T12:32:54.022Z,13.58
2023-03-15T12:35:00.547Z,13.53
2023-03-15T12:37:09.600Z,13.42
2023-03-15T12:39:38.329Z,13.31
2023-03-15T12:41:44.733Z,13.17
2023-03-15T12:43:54.010Z,13.06
2023-03-15T12:46:01.379Z,12.93
2023-03-15T12:48:28.673Z,12.77
2023-03-15T12:50:40.442Z,12.65
2023-03-15T12:52:46.131Z,12.57
2023-03-15T12:54:57.119Z,12.48
2023-03-15T12:57:04.537Z,12.41
2023-03-15T12:59:18.822Z,12.38
2023-03-15T13:01:28.253Z,12.32
2023-03-15T13:03:34.886Z,12.36
2023-03-15T13:06:03.453Z,12.34
2023-03-15T13:08:12.050Z,12.34
2023-03-15T13:10:34.086Z,12.33
2023-03-15T13:12:44.800Z,12.32
2023-03-15T13:15:00.263Z,12.27
2023-03-15T13:17:17.736Z,12.20
2023-03-15T13:19:36.570Z,12.17
2023-03-15T13:22:21.423Z,12.20
2023-03-15T13:25:00.073Z,12.30
2023-03-15T13:29:52.107Z,12.47
2023-03-15T13:32:04.882Z,12.55
2023-03-15T13:34:22.740Z,12.57
2023-03-15T13:36:31.205Z,12.58
2023-03-15T13:38:38.017Z,12.58
2023-03-15T13:40:49.251Z,12.55
2023-03-15T13:42:55.684Z,12.54
2023-03-15T13:45:18.363Z,12.47
2023-03-15T13:47:23.988Z,12.45
2023-03-15T13:49:37.977Z,12.44
2023-03-15T13:51:43.871Z,12.42
2023-03-15T13:53:54.674Z,12.38
2023-03-15T13:56:00.716Z,12.40
2023-03-15T13:58:10.017Z,12.34
2023-03-15T14:00:19.951Z,12.38
2023-03-15T14:02:28.058Z,12.38
2023-03-15T14:04:39.941Z,12.36
2023-03-15T14:06:45.804Z,12.38
2023-03-15T14:08:54.825Z,12.37
2023-03-15T14:11:06.063Z,12.34
2023-03-15T14:13:26.529Z,12.31
2023-03-15T14:15:44.575Z,12.31
2023-03-15T14:18:05.005Z,12.34
2023-03-15T14:20:19.898Z,12.30
2023-03-15T14:22:25.744Z,12.33
2023-03-15T14:24:34.163Z,12.30
2023-03-15T14:26:43.170Z,12.32
2023-03-15T14:28:52.666Z,12.29
2023-03-15T14:31:01.005Z,12.25
2023-03-15T14:33:08.909Z,12.25
2023-03-15T14:35:26.888Z,12.19
2023-03-15T14:37:38.960Z,12.15
2023-03-15T14:39:47.751Z,12.09
2023-03-15T14:41:55.775Z,11.99
2023-03-15T14:44:00.921Z,11.90
2023-03-15T14:46:07.332Z,11.79
2023-03-15T14:48:17.705Z,11.71
2023-03-15T14:50:35.833Z,11.66
2023-03-15T14:52:44.858Z,11.58
2023-03-15T14:54:54.009Z,11.50
2023-03-15T14:57:00.055Z,11.46
2023-03-15T14:59:15.164Z,11.43
2023-03-15T15:01:23.968Z,11.37
2023-03-15T15:03:38.522Z,11.34
2023-03-15T15:05:46.549Z,11.29
2023-03-15T15:07:54.878Z,11.28
2023-03-15T15:09:59.901Z,11.24
2023-03-15T15:12:05.280Z,11.21
2023-03-15T15:14:15.850Z,11.17
2023-03-15T15:16:20.843Z,11.13
2023-03-15T15:18:26.559Z,11.12
2023-03-15T15:20:31.472Z,11.09
2023-03-15T15:22:38.820Z,11.09
2023-03-15T15:24:44.785Z,11.09
2023-03-15T15:26:50.273Z,11.05
2023-03-15T15:28:55.391Z,11.02
2023-03-15T15:31:00.291Z,11.00
2023-03-15T15:33:05.166Z,10.96
2023-03-15T15:35:11.475Z,10.94
2023-03-15T15:37:16.739Z,10.92
2023-03-15T15:39:27.093Z,10.87
2023-03-15T15:41:33.286Z,10.83
2023-03-15T15:43:38.024Z,10.81
2023-03-15T15:45:42.869Z,10.80
2023-03-15T15:47:48.284Z,10.78
2023-03-15T15:49:53.027Z,10.78
2023-03-15T15:51:57.747Z,10.77
2023-03-15T15:54:04.733Z,10.76
2023-03-15T15:56:14.900Z,10.72
2023-03-15T15:58:20.339Z,10.72
2023-03-15T16:00:27.142Z,10.71
2023-03-15T16:02:32.039Z,10.71
2023-03-15T16:04:37.348Z,10.69
2023-03-15T16:06:43.989Z,10.67
2023-03-15T16:08:50.292Z,10.66
2023-03-15T16:10:55.369Z,10.61
2023-03-15T16:13:03.067Z,10.60
2023-03-15T16:15:11.948Z,10.60
2023-03-15T16:17:21.986Z,10.59
2023-03-15T16:19:26.899Z,10.58
2023-03-15T16:21:36.561Z,10.55
2023-03-15T16:23:41.847Z,10.55
2023-03-15T16:25:52.203Z,10.53
2023-03-15T16:27:58.152Z,10.51
2023-03-15T16:30:06.366Z,10.45
2023-03-15T16:32:24.355Z,10.44
2023-03-15T16:34:35.051Z,10.42
2023-03-15T16:36:43.581Z,10.42
2023-03-15T16:38:48.318Z,10.38
2023-03-15T16:40:54.939Z,10.37
2023-03-15T16:43:00.753Z,10.35
2023-03-15T16:45:12.408Z,10.31
2023-03-15T16:47:17.361Z,10.30
2023-03-15T16:49:24.045Z,10.29
2023-03-15T16:51:29.018Z,10.26
2023-03-15T16:53:35.604Z,10.23
2023-03-15T16:55:40.605Z,10.21
2023-03-15T16:57:48.691Z,10.17
2023-03-15T16:59:54.196Z,10.16
2023-03-15T17:02:01.902Z,10.14
2023-03-15T17:04:07.276Z,10.12
2023-03-15T17:06:20.288Z,10.07
2023-03-15T17:08:25.406Z,10.06
2023-03-15T17:10:32.529Z,10.04
2023-03-15T17:12:38.955Z,10.01
2023-03-15T17:14:43.953Z,9.98
2023-03-15T17:16:49.246Z,9.96
2023-03-15T17:18:56.892Z,9.93
2023-03-15T17:21:02.200Z,9.90
2023-03-15T17:23:07.876Z,9.89
2023-03-15T17:25:13.043Z,9.85
2023-03-15T17:27:24.439Z,9.81
2023-03-15T17:29:29.184Z,9.78
2023-03-15T17:31:36.010Z,9.76
2023-03-15T17:33:40.729Z,9.74
2023-03-15T17:35:54.190Z,9.68
2023-03-15T17:37:59.410Z,9.65
2023-03-15T17:40:11.729Z,9.63
2023-03-15T17:42:17.799Z,9.59
2023-03-15T17:44:22.642Z,9.55
2023-03-15T17:46:30.325Z,9.52
2023-03-15T17:48:35.094Z,9.49
2023-03-15T17:50:40.484Z,9.47
2023-03-15T17:52:59.100Z,9.43
2023-03-15T17:55:04.085Z,9.43
2023-03-15T17:57:09.034Z,9.41
2023-03-15T17:59:15.102Z,9.40
2023-03-15T18:01:22.707Z,9.40
2023-03-15T18:03:28.723Z,9.39
2023-03-15T18:05:34.077Z,9.39
2023-03-15T18:07:43.551Z,9.38
2023-03-15T18:09:56.320Z,9.36
2023-03-15T18:12:02.530Z,9.37
2023-03-15T18:14:07.830Z,9.35
2023-03-15T18:16:14.687Z,9.36
2023-03-15T18:18:20.016Z,9.36
2023-03-15T18:20:26.049Z,9.34
2023-03-15T18:22:30.777Z,9.32
2023-03-15T18:24:35.473Z,9.31
2023-03-15T18:26:42.829Z,9.30
2023-03-15T18:28:49.046Z,9.29
2023-03-15T18:30:53.877Z,9.26
2023-03-15T18:32:59.634Z,9.24
2023-03-15T18:35:04.707Z,9.22
2023-03-15T18:37:09.854Z,9.22
2023-03-15T18:39:14.600Z,9.19
2023-03-15T18:41:21.392Z,9.17
2023-03-15T18:43:29.048Z,9.13
2023-03-15T18:45:35.970Z,9.14
2023-03-15T18:47:41.083Z,9.11
2023-03-15T18:49:45.773Z,9.11
2023-03-15T18:51:55.259Z,9.10
2023-03-15T18:54:00.114Z,9.09
2023-03-15T18:56:04.965Z,9.08
2023-03-15T18:58:13.166Z,9.09
2023-03-15T19:00:27.088Z,9.08
2023-03-15T19:02:32.074Z,9.07
2023-03-15T19:04:37.083Z,9.05
2023-03-15T19:06:42.101Z,9.06
2023-03-15T19:08:48.920Z,9.05
2023-03-15T19:11:00.922Z,9.03
2023-03-15T19:13:05.620Z,9.02
2023-03-15T19:15:15.289Z,9.01
2023-03-15T19:17:22.924Z,8.99
2023-03-15T19:19:28.141Z,8.98
2023-03-15T19:21:32.979Z,8.97
2023-03-15T19:23:37.751Z,8.96
2023-03-15T19:25:43.002Z,8.97
2023-03-15T19:27:47.790Z,8.97
2023-03-15T19:29:52.662Z,8.97
2023-03-15T19:31:57.375Z,8.97
2023-03-15T19:34:04.722Z,8.97
2023-03-15T19:36:10.830Z,8.97
2023-03-15T19:38:16.280Z,8.97
2023-03-15T19:40:22.383Z,8.96
2023-03-15T19:42:34.159Z,8.95
2023-03-15T19:44:38.950Z,8.95
2023-03-15T19:46:48.204Z,8.95
2023-03-15T19:48:53.093Z,8.93
2023-03-15T19:51:00.892Z,8.92
2023-03-15T19:53:05.661Z,8.91
2023-03-15T19:55:11.248Z,8.90
2023-03-15T19:57:16.402Z,8.88
2023-03-15T19:59:21.490Z,8.85
2023-03-15T20:01:26.935Z,8.84
2023-03-15T20:03:34.822Z,8.82
2023-03-15T20:05:39.962Z,8.81
2023-03-15T20:07:47.632Z,8.79
2023-03-15T20:09:53.857Z,8.77
2023-03-15T20:11:58.906Z,8.77
2023-03-15T20:14:04.294Z,8.76
2023-03-15T20:16:10.800Z,8.74
2023-03-15T20:18:16.146Z,8.73
2023-03-15T20:20:21.771Z,8.71
2023-03-15T20:22:27.038Z,8.69
2023-03-15T20:24:36.717Z,8.64
2023-03-15T20:26:41.536Z,8.63
2023-03-15T20:28:47.837Z,8.62
2023-03-15T20:30:52.572Z,8.61
2023-03-15T20:32:57.512Z,8.61
2023-03-15T20:35:02.487Z,8.60
2023-03-15T20:37:07.358Z,8.59
2023-03-15T20:39:12.799Z,8.57
2023-03-15T20:41:21.123Z,8.53
2023-03-15T20:43:26.350Z,8.51
2023-03-15T20:45:32.008Z,8.49
2023-03-15T20:47:37.887Z,8.46
2023-03-15T20:49:43.050Z,8.45
2023-03-15T20:51:47.804Z,8.43
2023-03-15T20:53:52.627Z,8.42
2023-03-15T20:55:57.583Z,8.40
2023-03-15T20:58:05.124Z,8.35
2023-03-15T21:00:13.217Z,8.34
2023-03-15T21:02:18.421Z,8.29
2023-03-15T21:04:26.221Z,8.26
2023-03-15T21:06:31.056Z,8.25
2023-03-15T21:08:36.794Z,8.23
2023-03-15T21:10:42.256Z,8.17
2023-03-15T21:12:47.451Z,8.12
2023-03-15T21:14:54.791Z,8.05
2023-03-15T21:17:00.176Z,8.01
2023-03-15T21:19:04.972Z,8.00
2023-03-15T21:21:10.775Z,7.98
2023-03-15T21:23:15.643Z,7.99
2023-03-15T21:25:20.909Z,8.00
2023-03-15T21:27:26.719Z,8.01
2023-03-15T21:29:31.437Z,8.00
2023-03-15T21:31:39.928Z,7.96
2023-03-15T21:33:44.641Z,7.93
2023-03-15T21:35:49.629Z,7.89
2023-03-15T21:37:54.441Z,7.87
2023-03-15T21:39:59.217Z,7.83
2023-03-15T21:42:04.163Z,7.80
2023-03-15T21:44:09.065Z,7.75
2023-03-15T21:46:16.292Z,7.73
2023-03-15T21:48:23.902Z,7.72
2023-03-15T21:50:28.710Z,7.72
2023-03-15T21:52:33.960Z,7.72
2023-03-15T21:54:38.938Z,7.72
2023-03-15T21:56:43.860Z,7.72
2023-03-15T21:58:48.996Z,7.71
2023-03-15T22:01:00.438Z,7.66
2023-03-15T22:03:05.184Z,7.61
2023-03-15T22:05:14.071Z,7.53
2023-03-15T22:07:18.833Z,7.47
2023-03-15T22:09:25.217Z,7.41
2023-03-15T22:11:29.971Z,7.33
2023-03-15T22:13:37.086Z,7.25
2023-03-15T22:15:41.967Z,7.22
2023-03-15T22:17:47.425Z,7.16
2023-03-15T22:19:52.174Z,7.10
2023-03-15T22:21:59.590Z,7.05
2023-03-15T22:24:04.288Z,7.01
2023-03-15T22:26:09.866Z,7.00
2023-03-15T22:28:14.968Z,6.99
2023-03-15T22:30:20.230Z,6.99
2023-03-15T22:32:24.962Z,6.99
2023-03-15T22:34:30.141Z,7.00
2023-03-15T22:36:35.257Z,6.98
2023-03-15T22:38:42.588Z,6.94
2023-03-15T22:40:47.361Z,6.92
2023-03-15T22:42:52.898Z,6.85
2023-03-15T22:44:57.636Z,6.78
2023-03-15T22:47:02.420Z,6.71
2023-03-15T22:49:07.199Z,6.67
2023-03-15T22:51:16.431Z,6.62
2023-03-15T22:53:21.239Z,6.60
2023-03-15T22:55:28.621Z,6.57
2023-03-15T22:57:33.899Z,6.56
2023-03-15T22:59:38.560Z,6.51
2023-03-15T23:01:43.256Z,6.47
2023-03-15T23:03:48.133Z,6.45
2023-03-15T23:05:52.842Z,6.42
2023-03-15T23:07:57.692Z,6.39
2023-03-15T23:10:02.396Z,6.38
2023-03-15T23:12:10.527Z,6.38
2023-03-15T23:14:15.550Z,6.38
2023-03-15T23:16:21.322Z,6.39
2023-03-15T23:18:26.118Z,6.38
2023-03-15T23:20:31.120Z,6.37
2023-03-15T23:22:35.906Z,6.39
2023-03-15T23:24:40.636Z,6.40
2023-03-15T23:26:45.410Z,6.42
2023-03-15T23:28:52.777Z,6.44
2023-03-15T23:30:58.007Z,6.41
2023-03-15T23:33:03.923Z,6.40
2023-03-15T23:35:12.312Z,6.39
2023-03-15T23:37:17.830Z,6.40
2023-03-15T23:39:23.558Z,6.41
2023-03-15T23:41:28.345Z,6.39
2023-03-15T23:43:33.579Z,6.37
2023-03-15T23:45:41.968Z,6.29
2023-03-15T23:47:47.152Z,6.26
2023-03-15T23:49:52.190Z,6.26
2023-03-15T23:51:56.925Z,6.25
2023-03-15T23:54:02.185Z,6.22
2023-03-15T23:56:07.170Z,6.19
2023-03-15T23:58:12.054Z,6.16
